createdAt,value
2019-04-16T00:03:33.948Z,7.70
2019-04-16T00:08:49.532Z,7.37
2019-04-16T00:14:04.243Z,8.00
2019-04-16T00:19:10.046Z,7.73
2019-04-16T00:24:40.267Z,8.93
2019-04-16T00:29:45.990Z,7.70
2019-04-16T00:34:51.479Z,8.43
2019-04-16T00:39:57.130Z,7.93
2019-04-16T00:45:02.843Z,7.93
2019-04-16T00:50:09.168Z,7.90
2019-04-16T00:55:14.811Z,8.23
2019-04-16T01:00:20.355Z,8.17
2019-04-16T01:05:25.821Z,7.80
2019-04-16T01:10:31.284Z,7.97
2019-04-16T01:15:36.724Z,7.87
2019-04-16T01:20:43.209Z,7.37
2019-04-16T01:25:49.513Z,8.20
2019-04-16T01:31:19.661Z,7.87
2019-04-16T01:36:43.986Z,8.07
2019-04-16T01:41:50.347Z,8.20
2019-04-16T01:46:56.744Z,8.70
2019-04-16T01:52:02.193Z,7.97
2019-04-16T01:57:07.635Z,8.10
2019-04-16T02:02:15.563Z,8.50
2019-04-16T02:07:20.238Z,7.50
2019-04-16T02:12:25.683Z,7.97
2019-04-16T02:17:31.117Z,7.97
2019-04-16T02:22:36.524Z,7.70
2019-04-16T02:27:41.972Z,8.47
2019-04-16T02:32:47.432Z,8.37
2019-04-16T02:37:52.817Z,8.03
2019-04-16T02:43:04.100Z,7.80
2019-04-16T02:48:05.428Z,8.37
2019-04-16T02:53:28.307Z,8.37
2019-04-16T02:58:38.508Z,8.63
2019-04-16T03:03:48.838Z,8.57
2019-04-16T03:08:54.328Z,8.33
2019-04-16T03:13:59.856Z,8.10
2019-04-16T03:19:08.788Z,9.53
2019-04-16T03:24:14.212Z,7.90
2019-04-16T03:29:19.649Z,8.03
2019-04-16T03:34:25.063Z,8.53
2019-04-16T03:39:30.516Z,8.30
2019-04-16T03:44:37.272Z,9.10
2019-04-16T03:49:42.980Z,8.23
2019-04-16T03:54:48.402Z,8.17
2019-04-16T03:59:53.837Z,8.50
2019-04-16T04:05:01.556Z,8.53
2019-04-16T04:10:06.781Z,8.80
2019-04-16T04:15:12.206Z,8.63
2019-04-16T04:20:18.904Z,8.43
2019-04-16T04:25:24.730Z,8.50
2019-04-16T04:30:30.148Z,9.17
2019-04-16T04:35:35.609Z,8.33
2019-04-16T04:40:44.722Z,8.57
2019-04-16T04:45:48.492Z,8.67
2019-04-16T04:50:53.972Z,8.50
2019-04-16T04:55:59.445Z,8.50
2019-04-16T05:01:04.885Z,8.33
2019-04-16T05:06:11.671Z,8.40
2019-04-16T05:11:17.218Z,8.40
2019-04-16T05:16:22.847Z,8.13
2019-04-16T05:21:28.308Z,8.90
2019-04-16T05:26:36.620Z,8.90
2019-04-16T05:31:44.743Z,8.97
2019-04-16T05:36:50.280Z,8.83
2019-04-16T05:41:56.028Z,8.87
2019-04-16T05:47:01.767Z,8.30
2019-04-16T05:52:07.199Z,8.23
2019-04-16T05:57:16.101Z,8.73
2019-04-16T06:02:40.490Z,8.43
2019-04-16T06:07:46.072Z,9.33
2019-04-16T06:13:12.621Z,8.70
2019-04-16T06:18:37.976Z,9.30
2019-04-16T06:24:19.176Z,8.97
2019-04-16T06:29:41.913Z,8.10
2019-04-16T06:35:15.366Z,8.80
2019-04-16T06:40:46.339Z,8.23
2019-04-16T06:46:05.472Z,8.37
2019-04-16T06:51:31.634Z,8.07
2019-04-16T06:56:50.282Z,8.57
2019-04-16T07:02:12.194Z,8.60
2019-04-16T07:07:40.297Z,8.63
2019-04-16T07:12:46.499Z,7.87
2019-04-16T07:17:52.339Z,8.57
2019-04-16T07:22:58.506Z,8.17
2019-04-16T07:28:25.772Z,8.20
2019-04-16T07:33:44.827Z,7.83
2019-04-16T07:39:28.779Z,8.13
2019-04-16T07:44:36.424Z,8.33
2019-04-16T07:49:45.272Z,8.03
2019-04-16T07:55:12.657Z,8.23
2019-04-16T08:00:18.669Z,8.13
2019-04-16T08:05:27.685Z,8.77
2019-04-16T08:10:31.992Z,8.27
2019-04-16T08:15:37.937Z,8.60
2019-04-16T08:20:43.724Z,9.43
2019-04-16T08:25:55.088Z,9.93
2019-04-16T08:30:57.268Z,10.27
2019-04-16T08:36:03.130Z,9.70
2019-04-16T08:41:12.351Z,9.63
2019-04-16T08:46:16.820Z,9.27
2019-04-16T08:51:30.163Z,9.80
2019-04-16T08:56:30.224Z,10.50
2019-04-16T09:01:36.123Z,9.90
2019-04-16T09:06:45.800Z,9.43
2019-04-16T09:11:58.229Z,10.37
2019-04-16T09:17:11.294Z,10.60
2019-04-16T09:22:17.258Z,10.63
2019-04-16T09:27:41.948Z,11.33
2019-04-16T09:32:51.863Z,11.83
2019-04-16T09:38:22.560Z,10.67
2019-04-16T09:43:28.928Z,11.57
2019-04-16T09:48:35.522Z,11.53
2019-04-16T09:53:41.396Z,11.70
2019-04-16T09:58:48.051Z,12.60
2019-04-16T10:03:54.420Z,12.70
2019-04-16T10:09:00.740Z,13.10
2019-04-16T10:14:06.310Z,12.73
2019-04-16T10:19:13.789Z,12.63
2019-04-16T10:24:38.229Z,13.13
2019-04-16T10:29:43.798Z,13.07
2019-04-16T10:34:49.502Z,14.23
2019-04-16T10:40:09.868Z,13.40
2019-04-16T10:45:40.461Z,14.37
2019-04-16T10:51:01.198Z,14.20
2019-04-16T10:56:24.053Z,13.70
2019-04-16T11:01:35.206Z,13.80
2019-04-16T11:06:43.205Z,13.67
2019-04-16T11:11:48.782Z,14.23
2019-04-16T11:16:54.584Z,13.73
2019-04-16T11:22:03.932Z,13.87
2019-04-16T11:27:07.427Z,15.17
2019-04-16T11:32:15.066Z,15.07
2019-04-16T11:37:20.503Z,14.33
2019-04-16T11:42:26.057Z,14.07
2019-04-16T11:47:34.247Z,14.70
2019-04-16T11:52:40.039Z,14.87
2019-04-16T11:57:45.754Z,14.00
2019-04-16T12:03:22.629Z,13.23
2019-04-16T12:08:45.579Z,13.13
2019-04-16T12:14:00.106Z,12.33
2019-04-16T12:19:22.892Z,12.97
2019-04-16T12:24:48.796Z,13.10
2019-04-16T12:30:13.328Z,12.30
2019-04-16T12:35:35.705Z,12.70
2019-04-16T12:41:05.989Z,12.57
2019-04-16T12:46:36.335Z,9.33
2019-04-16T12:51:48.742Z,10.30
2019-04-16T12:57:16.653Z,11.37
2019-04-16T13:02:41.948Z,11.13
2019-04-16T13:08:11.114Z,11.10
2019-04-16T13:13:34.805Z,10.10
2019-04-16T13:19:00.431Z,10.07
2019-04-16T13:24:09.313Z,10.80
2019-04-16T13:29:17.458Z,9.83
2019-04-16T13:34:23.039Z,9.17
2019-04-16T13:39:50.843Z,8.67
2019-04-16T13:45:18.841Z,8.97
2019-04-16T13:50:35.339Z,9.97
2019-04-16T13:55:55.562Z,10.40
2019-04-16T14:01:10.569Z,9.70
2019-04-16T14:06:16.335Z,9.23
2019-04-16T14:11:21.779Z,9.80
2019-04-16T14:16:27.361Z,8.73
2019-04-16T14:21:32.960Z,9.00
2019-04-16T14:26:38.812Z,9.23
2019-04-16T14:31:46.159Z,7.47
2019-04-16T14:36:53.283Z,7.07
2019-04-16T14:41:58.938Z,7.60
2019-04-16T14:47:04.419Z,7.10
2019-04-16T14:52:09.907Z,7.40
2019-04-16T14:57:15.620Z,6.17
2019-04-16T15:02:32.033Z,5.97
2019-04-16T15:07:44.128Z,6.47
2019-04-16T15:13:00.418Z,6.60
2019-04-16T15:18:16.566Z,6.27
2019-04-16T15:23:56.683Z,5.87
2019-04-16T15:29:07.322Z,5.63
2019-04-16T15:34:16.048Z,5.83
2019-04-16T15:39:27.671Z,6.70
2019-04-16T15:44:45.825Z,5.57
2019-04-16T15:49:56.674Z,5.47
2019-04-16T15:55:24.411Z,4.93
2019-04-16T16:00:50.528Z,4.20
2019-04-16T16:06:00.617Z,4.70
2019-04-16T16:11:10.295Z,4.97
2019-04-16T16:16:17.977Z,5.03
2019-04-16T16:21:22.992Z,4.60
2019-04-16T16:26:28.439Z,4.83
2019-04-16T16:31:35.696Z,4.40
2019-04-16T16:36:41.582Z,3.40
2019-04-16T16:41:46.979Z,2.37
2019-04-16T16:47:11.513Z,2.57
2019-04-16T16:52:41.893Z,1.87
2019-04-16T16:58:20.943Z,1.77
2019-04-16T17:03:42.972Z,1.80
2019-04-16T17:08:48.700Z,1.50
2019-04-16T17:13:54.732Z,1.90
2019-04-16T17:19:00.490Z,1.80
2019-04-16T17:24:05.954Z,1.87
2019-04-16T17:29:11.609Z,1.80
2019-04-16T17:34:17.022Z,1.80
2019-04-16T17:39:50.255Z,2.40
2019-04-16T17:45:14.634Z,2.00
2019-04-16T17:50:39.710Z,2.50
2019-04-16T17:56:03.411Z,2.13
2019-04-16T18:01:30.662Z,2.00
2019-04-16T18:06:42.999Z,1.90
2019-04-16T18:12:07.222Z,1.80
2019-04-16T18:17:47.231Z,2.00
2019-04-16T18:23:06.763Z,1.77
2019-04-16T18:28:15.920Z,2.20
2019-04-16T18:33:43.090Z,1.63
2019-04-16T18:39:10.288Z,2.13
2019-04-16T18:44:37.660Z,1.87
2019-04-16T18:49:43.791Z,1.70
2019-04-16T18:54:50.019Z,1.63
2019-04-16T18:59:55.484Z,1.73
2019-04-16T19:05:01.026Z,1.70
2019-04-16T19:10:06.499Z,2.17
2019-04-16T19:15:11.985Z,2.30
2019-04-16T19:20:18.339Z,2.40
2019-04-16T19:25:23.875Z,2.80
2019-04-16T19:30:29.330Z,2.50
2019-04-16T19:35:34.761Z,2.77
2019-04-16T19:40:40.218Z,2.70
2019-04-16T19:45:45.703Z,2.83
2019-04-16T19:50:51.159Z,2.80
2019-04-16T19:55:56.619Z,2.77
2019-04-16T20:01:02.051Z,2.80
2019-04-16T20:06:07.598Z,2.33
2019-04-16T20:11:13.067Z,2.53
2019-04-16T20:16:18.747Z,2.57
2019-04-16T20:21:24.322Z,2.57
2019-04-16T20:26:32.624Z,2.73
2019-04-16T20:31:37.109Z,2.70
2019-04-16T20:36:42.543Z,2.87
2019-04-16T20:41:52.821Z,2.70
2019-04-16T20:46:58.237Z,2.80
2019-04-16T20:52:03.628Z,2.90
2019-04-16T20:57:09.074Z,2.87
2019-04-16T21:02:14.575Z,3.03
2019-04-16T21:07:20.028Z,3.87
2019-04-16T21:12:25.505Z,3.07
2019-04-16T21:17:31.008Z,3.23
2019-04-16T21:22:36.462Z,2.50
2019-04-16T21:28:06.236Z,3.20
2019-04-16T21:33:29.252Z,3.10
2019-04-16T21:38:51.762Z,3.57
2019-04-16T21:43:57.202Z,2.97
2019-04-16T21:49:02.629Z,2.60
2019-04-16T21:54:08.108Z,2.50
2019-04-16T21:59:13.585Z,2.30
2019-04-16T22:04:19.120Z,2.50
2019-04-16T22:09:24.633Z,2.33
2019-04-16T22:14:30.121Z,2.70
2019-04-16T22:19:35.554Z,2.50
2019-04-16T22:24:41.085Z,3.20
2019-04-16T22:29:47.521Z,2.67
2019-04-16T22:34:53.644Z,3.30
2019-04-16T22:40:22.795Z,3.43
2019-04-16T22:45:45.334Z,3.97
2019-04-16T22:50:50.848Z,4.10
2019-04-16T22:55:57.633Z,3.50
2019-04-16T23:01:07.839Z,3.50
2019-04-16T23:06:13.289Z,3.20
2019-04-16T23:11:23.246Z,4.03
2019-04-16T23:16:26.072Z,3.63
2019-04-16T23:21:31.497Z,3.50
2019-04-16T23:26:36.971Z,3.60
2019-04-16T23:31:42.396Z,3.97
2019-04-16T23:36:48.637Z,4.10
2019-04-16T23:41:54.921Z,4.10
2019-04-16T23:47:17.795Z,3.70
2019-04-16T23:52:27.152Z,3.70
2019-04-16T23:57:56.771Z,3.37
